This is the latest recevied weather packets stored in our database for station/object CE4ERM-13. If no packets are shown the sender has not sent any weather packets the latest 10 day(s).
| Time | Temp. | Humidity | Pressure | Rain* | Wind** | Luminosity | Snow |
|---|---|---|---|---|---|---|---|
| 1778036343 | 22.78° C | 42% | 1019 hPa | - | - | - | - |
| 1778036195 | 21.11° C | 41% | 1018.9 hPa | - | - | - | - |
| 1778035743 | 22.78° C | 42% | 1017.8 hPa | - | - | - | - |
| 1778034994 | 21.11° C | 42% | 1018.5 hPa | - | - | - | - |
| 1778034543 | 22.78° C | 43% | 1016.8 hPa | - | - | - | - |
| 1778034394 | 21.11° C | 42% | 1018.2 hPa | - | - | - | - |
| 1778034013 | 23.33° C | 42% | 1017.6 hPa | - | - | - | - |
| 1778034013 | 21.11° C | 41% | 1017.7 hPa | - | - | - | - |
| 1778033942 | 23.33° C | 42% | 1017.6 hPa | - | - | - | - |
| 1778033793 | 21.11° C | 41% | 1017.7 hPa | - | - | - | - |
| 1778033341 | 22.78° C | 43% | 1017.5 hPa | - | - | - | - |
| 1778033193 | 21.67° C | 42% | 1017.6 hPa | - | - | - | - |
| 1778032140 | 22.78° C | 43% | 1016.5 hPa | - | - | - | - |
| 1778031993 | 21.67° C | 42% | 1017.9 hPa | - | - | - | - |
| 1778031540 | 22.78° C | 44% | 1016.1 hPa | - | - | - | - |
| 1778031392 | 21.67° C | 42% | 1016.3 hPa | - | - | - | - |
| 1778030192 | 21.67° C | 42% | 1016.9 hPa | - | - | - | - |
| 1778029591 | 21.67° C | 42% | 1017.1 hPa | - | - | - | - |
| 1778028991 | 22.22° C | 42% | 1018.9 hPa | - | - | - | - |
| 1778028537 | 22.22° C | 46% | 1017.4 hPa | - | - | - | - |
| 1778028391 | 22.22° C | 41% | 1017.4 hPa | - | - | - | - |
| 1778027936 | 22.22° C | 47% | 1017 hPa | - | - | - | - |
| 1778027791 | 22.78° C | 41% | 1017.7 hPa | - | - | - | - |
| 1778027336 | 20.56° C | 51% | 1016.4 hPa | - | - | - | - |
| 1778027192 | 22.78° C | 41% | 1019.6 hPa | - | - | - | - |
* Rain since midnight (hover to see other rain measurements)
** Current wind speed in m/s (hover to see current wind gust speed)